createdAt,value
2023-04-02T00:00:23.718Z,0.60
2023-04-02T00:03:10.785Z,0.50
2023-04-02T00:05:57.958Z,0.60
2023-04-02T00:08:45.027Z,0.50
2023-04-02T00:11:35.269Z,0.50
2023-04-02T00:14:31.208Z,0.50
2023-04-02T00:17:19.787Z,0.50
2023-04-02T00:20:08.155Z,0.47
2023-04-02T00:22:56.467Z,0.47
2023-04-02T00:25:45.649Z,0.47
2023-04-02T00:28:32.863Z,0.60
2023-04-02T00:31:20.812Z,0.60
2023-04-02T00:34:14.648Z,0.50
2023-04-02T00:37:02.697Z,0.60
2023-04-02T00:39:58.651Z,0.40
2023-04-02T00:42:47.947Z,0.50
2023-04-02T00:45:38.175Z,0.40
2023-04-02T00:48:31.290Z,0.60
2023-04-02T00:51:29.936Z,0.53
2023-04-02T00:54:21.625Z,0.40
2023-04-02T00:57:17.696Z,0.40
2023-04-02T01:00:33.431Z,0.50
2023-04-02T01:03:22.835Z,0.60
2023-04-02T01:06:15.627Z,0.40
2023-04-02T01:09:50.708Z,0.47
2023-04-02T01:13:31.643Z,0.80
2023-04-02T01:16:30.471Z,0.60
2023-04-02T01:19:54.321Z,0.50
2023-04-02T01:23:11.276Z,0.70
2023-04-02T01:26:16.850Z,0.57
2023-04-02T01:29:14.645Z,0.50
2023-04-02T01:32:13.317Z,0.40
2023-04-02T01:35:01.346Z,0.50
2023-04-02T01:38:08.464Z,0.50
2023-04-02T01:41:06.398Z,0.60
2023-04-02T01:44:00.239Z,0.50
2023-04-02T01:46:49.169Z,0.40
2023-04-02T01:49:36.238Z,0.50
2023-04-02T01:52:41.605Z,0.40
2023-04-02T01:55:46.864Z,0.50
2023-04-02T01:58:34.331Z,0.30
2023-04-02T02:01:29.813Z,0.50
2023-04-02T02:04:17.963Z,0.57
2023-04-02T02:07:05.704Z,0.40
2023-04-02T02:09:53.242Z,0.40
2023-04-02T02:12:49.797Z,0.57
2023-04-02T02:15:37.073Z,0.50
2023-04-02T02:18:25.824Z,0.50
2023-04-02T02:21:30.920Z,0.43
2023-04-02T02:24:23.030Z,0.50
2023-04-02T02:27:22.595Z,0.60
2023-04-02T02:30:21.990Z,0.43
2023-04-02T02:33:27.409Z,0.50
2023-04-02T02:36:40.067Z,0.43
2023-04-02T02:39:36.115Z,0.70
2023-04-02T02:42:28.983Z,0.50
2023-04-02T02:45:20.925Z,0.47
2023-04-02T02:48:14.323Z,0.60
2023-04-02T02:51:08.435Z,0.60
2023-04-02T02:54:01.318Z,0.60
2023-04-02T02:56:56.282Z,0.60
2023-04-02T02:59:45.218Z,0.60
2023-04-02T03:02:37.621Z,0.60
2023-04-02T03:05:28.508Z,0.60
2023-04-02T03:08:42.316Z,0.73
2023-04-02T03:11:40.087Z,0.73
2023-04-02T03:14:48.908Z,0.60
2023-04-02T03:17:43.659Z,0.70
2023-04-02T03:20:52.149Z,0.60
2023-04-02T03:23:44.024Z,0.60
2023-04-02T03:26:38.348Z,0.70
2023-04-02T03:29:29.849Z,0.80
2023-04-02T03:32:23.327Z,0.60
2023-04-02T03:35:49.509Z,0.70
2023-04-02T03:38:44.534Z,0.90
2023-04-02T03:41:55.039Z,0.77
2023-04-02T03:45:19.216Z,0.60
2023-04-02T03:48:51.337Z,0.60
2023-04-02T03:51:54.998Z,0.67
2023-04-02T03:54:53.916Z,0.90
2023-04-02T03:58:03.279Z,0.57
2023-04-02T04:00:52.221Z,0.60
2023-04-02T04:03:46.618Z,0.60
2023-04-02T04:06:36.716Z,0.50
2023-04-02T04:09:29.566Z,0.50
2023-04-02T04:12:29.356Z,0.60
2023-04-02T04:15:37.465Z,0.63
2023-04-02T04:18:34.894Z,0.70
2023-04-02T04:21:39.830Z,0.70
2023-04-02T04:24:39.172Z,0.60
2023-04-02T04:27:48.210Z,0.57
2023-04-02T04:31:03.895Z,0.70
2023-04-02T04:34:04.256Z,0.77
2023-04-02T04:37:01.656Z,0.70
2023-04-02T04:39:59.155Z,0.60
2023-04-02T04:42:48.610Z,0.60
2023-04-02T04:45:49.075Z,0.70
2023-04-02T04:49:11.335Z,0.57
2023-04-02T04:52:19.025Z,0.70
2023-04-02T04:55:35.101Z,0.50
2023-04-02T04:58:22.460Z,0.50
2023-04-02T05:01:29.986Z,0.67
2023-04-02T05:04:38.330Z,0.40
2023-04-02T05:07:31.426Z,0.60
2023-04-02T05:10:33.062Z,0.40
2023-04-02T05:13:29.405Z,0.60
2023-04-02T05:16:35.794Z,0.50
2023-04-02T05:19:35.616Z,0.67
2023-04-02T05:22:39.532Z,0.70
2023-04-02T05:25:31.703Z,0.60
2023-04-02T05:28:32.132Z,0.60
2023-04-02T05:31:28.029Z,0.53
2023-04-02T05:34:25.362Z,0.60
2023-04-02T05:37:25.869Z,0.70
2023-04-02T05:40:23.475Z,0.50
2023-04-02T05:43:17.954Z,0.70
2023-04-02T05:46:15.446Z,0.70
2023-04-02T05:49:09.461Z,0.50
2023-04-02T05:52:00.873Z,0.50
2023-04-02T05:55:10.389Z,0.60
2023-04-02T05:58:31.961Z,0.70
2023-04-02T06:01:33.705Z,0.70
2023-04-02T06:04:41.295Z,0.80
2023-04-02T06:07:41.637Z,0.70
2023-04-02T06:10:33.278Z,0.60
2023-04-02T06:13:20.961Z,0.87
2023-04-02T06:16:13.490Z,0.80
2023-04-02T06:19:00.569Z,0.90
2023-04-02T06:21:50.388Z,1.03
2023-04-02T06:24:41.626Z,0.80
2023-04-02T06:27:29.323Z,0.77
2023-04-02T06:30:28.153Z,0.70
2023-04-02T06:33:16.499Z,1.00
2023-04-02T06:36:08.125Z,1.00
2023-04-02T06:39:03.447Z,1.07
2023-04-02T06:42:01.485Z,0.97
2023-04-02T06:45:29.064Z,0.90
2023-04-02T06:48:37.117Z,0.80
2023-04-02T06:51:26.243Z,1.13
2023-04-02T06:54:16.038Z,0.80
2023-04-02T06:57:07.151Z,1.00
2023-04-02T07:00:00.980Z,1.07
2023-04-02T07:02:49.867Z,1.03
2023-04-02T07:05:37.561Z,0.70
2023-04-02T07:08:25.557Z,0.90
2023-04-02T07:11:18.732Z,0.93
2023-04-02T07:14:12.883Z,0.80
2023-04-02T07:16:59.906Z,0.80
2023-04-02T07:19:49.683Z,0.70
2023-04-02T07:22:38.963Z,0.80
2023-04-02T07:25:26.705Z,0.80
2023-04-02T07:28:14.878Z,0.60
2023-04-02T07:31:01.924Z,0.73
2023-04-02T07:33:49.028Z,0.80
2023-04-02T07:36:36.296Z,0.73
2023-04-02T07:39:23.272Z,0.73
2023-04-02T07:42:10.398Z,0.77
2023-04-02T07:44:57.401Z,0.80
2023-04-02T07:47:45.021Z,0.70
2023-04-02T07:50:32.072Z,1.00
2023-04-02T07:53:32.214Z,1.00
2023-04-02T07:56:21.968Z,0.93
2023-04-02T07:59:09.289Z,0.93
2023-04-02T08:01:56.427Z,1.00
2023-04-02T08:04:43.428Z,0.97
2023-04-02T08:07:30.468Z,0.97
2023-04-02T08:10:19.128Z,0.90
2023-04-02T08:13:06.471Z,0.90
2023-04-02T08:15:53.488Z,1.10
2023-04-02T08:18:40.538Z,1.00
2023-04-02T08:21:27.652Z,1.27
2023-04-02T08:24:14.675Z,1.23
2023-04-02T08:27:02.159Z,1.00
2023-04-02T08:29:49.160Z,1.20
2023-04-02T08:32:36.337Z,1.17
2023-04-02T08:35:23.654Z,1.00
2023-04-02T08:38:15.444Z,1.23
2023-04-02T08:41:04.663Z,1.33
2023-04-02T08:44:11.441Z,1.53
2023-04-02T08:47:05.220Z,1.40
2023-04-02T08:50:00.869Z,1.33
2023-04-02T08:52:47.905Z,1.20
2023-04-02T08:55:42.843Z,1.30
2023-04-02T08:58:39.221Z,1.47
2023-04-02T09:01:44.727Z,1.03
2023-04-02T09:04:33.665Z,1.40
2023-04-02T09:07:20.755Z,1.13
2023-04-02T09:10:15.373Z,1.50
2023-04-02T09:13:07.891Z,1.63
2023-04-02T09:16:06.729Z,1.20
2023-04-02T09:18:54.277Z,1.47
2023-04-02T09:21:46.951Z,1.50
2023-04-02T09:24:34.074Z,1.50
2023-04-02T09:27:26.902Z,1.40
2023-04-02T09:30:32.229Z,1.40
2023-04-02T09:33:19.358Z,1.40
2023-04-02T09:36:18.169Z,1.33
2023-04-02T09:39:26.281Z,1.40
2023-04-02T09:42:35.074Z,1.60
2023-04-02T09:45:24.572Z,1.43
2023-04-02T09:48:25.297Z,1.77
2023-04-02T09:51:16.368Z,1.70
2023-04-02T09:54:03.365Z,1.60
2023-04-02T09:57:01.952Z,1.40
2023-04-02T10:00:12.229Z,1.10
2023-04-02T10:03:27.838Z,1.40
2023-04-02T10:06:16.403Z,1.40
2023-04-02T10:09:27.690Z,1.60
2023-04-02T10:12:15.422Z,1.50
2023-04-02T10:15:04.514Z,1.50
2023-04-02T10:18:02.545Z,1.57
2023-04-02T10:20:52.573Z,1.90
2023-04-02T10:23:40.013Z,1.97
2023-04-02T10:26:41.312Z,1.80
2023-04-02T10:29:41.588Z,1.70
2023-04-02T10:33:03.414Z,1.97
2023-04-02T10:35:59.601Z,1.60
2023-04-02T10:39:02.724Z,1.43
2023-04-02T10:42:13.367Z,1.40
2023-04-02T10:45:35.258Z,1.50
2023-04-02T10:48:52.882Z,1.90
2023-04-02T10:51:40.175Z,1.73
2023-04-02T10:54:37.895Z,2.40
2023-04-02T10:57:27.937Z,2.53
2023-04-02T11:00:24.796Z,2.33
2023-04-02T11:03:16.572Z,2.00
2023-04-02T11:06:18.984Z,1.57
2023-04-02T11:09:14.437Z,1.33
2023-04-02T11:12:02.361Z,1.73
2023-04-02T11:14:50.896Z,1.43
2023-04-02T11:17:38.576Z,1.20
2023-04-02T11:20:48.619Z,1.40
2023-04-02T11:23:51.191Z,1.20
2023-04-02T11:26:44.586Z,0.70
2023-04-02T11:29:34.495Z,0.50
2023-04-02T11:32:21.570Z,0.60
2023-04-02T11:35:30.086Z,0.30
2023-04-02T11:38:21.172Z,0.30
2023-04-02T11:41:08.355Z,0.30
2023-04-02T11:44:01.184Z,0.47
2023-04-02T11:46:48.487Z,0.43
2023-04-02T11:49:38.194Z,0.50
2023-04-02T11:52:29.300Z,0.50
2023-04-02T11:55:24.443Z,0.40
2023-04-02T11:58:36.443Z,0.40
2023-04-02T12:01:30.806Z,0.40
2023-04-02T12:04:39.551Z,0.40
2023-04-02T12:07:52.406Z,0.30
2023-04-02T12:11:02.192Z,0.50
2023-04-02T12:13:49.961Z,0.47
2023-04-02T12:16:37.690Z,0.47
2023-04-02T12:19:26.295Z,0.40
2023-04-02T12:22:20.311Z,0.53
2023-04-02T12:25:31.327Z,0.40
2023-04-02T12:28:19.646Z,0.27
2023-04-02T12:31:09.515Z,0.30
2023-04-02T12:33:56.637Z,0.40
2023-04-02T12:36:59.581Z,0.40
2023-04-02T12:39:56.659Z,0.50
2023-04-02T12:42:43.678Z,0.33
2023-04-02T12:45:33.933Z,0.30
2023-04-02T12:48:21.861Z,0.30
2023-04-02T12:51:10.773Z,0.43
2023-04-02T12:53:58.173Z,0.40
2023-04-02T12:56:45.368Z,0.40
2023-04-02T12:59:36.578Z,0.53
2023-04-02T13:02:25.723Z,0.40
2023-04-02T13:05:12.856Z,0.30
2023-04-02T13:08:00.010Z,0.50
2023-04-02T13:10:53.977Z,0.40
2023-04-02T13:13:43.650Z,0.60
2023-04-02T13:16:37.285Z,0.50
2023-04-02T13:19:34.016Z,0.50
2023-04-02T13:22:31.722Z,0.50
2023-04-02T13:25:19.157Z,0.60
2023-04-02T13:28:06.188Z,0.33
2023-04-02T13:30:53.235Z,0.50
2023-04-02T13:33:40.246Z,0.83
2023-04-02T13:36:29.233Z,0.70
2023-04-02T13:39:16.670Z,0.60
2023-04-02T13:42:04.496Z,0.60
2023-04-02T13:44:51.502Z,0.70
2023-04-02T13:47:41.157Z,0.60
2023-04-02T13:50:30.322Z,0.70
2023-04-02T13:53:28.253Z,0.77
2023-04-02T13:56:15.444Z,1.10
2023-04-02T13:59:02.485Z,1.20
2023-04-02T14:01:51.557Z,0.97
2023-04-02T14:04:44.257Z,0.80
2023-04-02T14:07:56.693Z,0.83
2023-04-02T14:11:19.051Z,0.60
2023-04-02T14:14:32.126Z,0.80
2023-04-02T14:17:49.845Z,1.10
2023-04-02T14:20:48.763Z,2.50
2023-04-02T14:23:52.500Z,2.90
2023-04-02T14:26:56.351Z,1.33
2023-04-02T14:29:46.707Z,1.00
2023-04-02T14:32:46.889Z,0.83
2023-04-02T14:35:36.972Z,1.10
2023-04-02T14:38:51.500Z,0.90
2023-04-02T14:42:01.662Z,0.80
2023-04-02T14:45:01.674Z,0.90
2023-04-02T14:47:54.392Z,1.10
2023-04-02T14:50:42.702Z,1.17
2023-04-02T14:53:47.526Z,1.10
2023-04-02T14:56:40.690Z,1.40
2023-04-02T14:59:36.728Z,1.10
2023-04-02T15:02:45.569Z,1.17
2023-04-02T15:05:54.600Z,1.03
2023-04-02T15:09:20.345Z,1.00
2023-04-02T15:12:14.785Z,1.03
2023-04-02T15:15:14.531Z,1.30
2023-04-02T15:18:01.870Z,1.30
2023-04-02T15:21:16.703Z,1.50
2023-04-02T15:24:11.589Z,1.57
2023-04-02T15:27:02.028Z,1.40
2023-04-02T15:30:13.139Z,1.63
2023-04-02T15:33:31.482Z,1.53
2023-04-02T15:36:41.444Z,1.80
2023-04-02T15:39:49.868Z,1.90
2023-04-02T15:42:43.558Z,1.60
2023-04-02T15:45:58.250Z,2.00
2023-04-02T15:49:05.559Z,1.70
2023-04-02T15:52:17.165Z,1.70
2023-04-02T15:55:14.061Z,1.80
2023-04-02T15:58:28.689Z,2.67
2023-04-02T16:01:53.170Z,2.80
2023-04-02T16:05:08.181Z,2.30
2023-04-02T16:08:32.895Z,1.80
2023-04-02T16:11:20.975Z,2.00
2023-04-02T16:14:23.960Z,1.80
2023-04-02T16:17:27.982Z,1.60
2023-04-02T16:20:21.927Z,1.80
2023-04-02T16:23:17.161Z,1.90
2023-04-02T16:26:26.581Z,1.50
2023-04-02T16:29:47.410Z,1.70
2023-04-02T16:33:22.224Z,1.80
2023-04-02T16:36:34.143Z,1.67
2023-04-02T16:39:52.826Z,1.80
2023-04-02T16:43:06.963Z,1.70
2023-04-02T16:46:10.287Z,1.60
2023-04-02T16:49:17.849Z,1.33
2023-04-02T16:52:15.311Z,1.43
2023-04-02T16:55:36.214Z,1.50
2023-04-02T16:58:45.866Z,1.60
2023-04-02T17:01:43.470Z,1.73
2023-04-02T17:04:52.390Z,1.60
2023-04-02T17:08:02.878Z,1.60
2023-04-02T17:10:54.932Z,1.90
2023-04-02T17:13:42.855Z,2.00
2023-04-02T17:16:43.591Z,1.80
2023-04-02T17:19:32.575Z,1.60
2023-04-02T17:22:22.605Z,1.50
2023-04-02T17:25:18.443Z,1.30
2023-04-02T17:28:12.345Z,1.53
2023-04-02T17:31:00.331Z,1.50
2023-04-02T17:33:47.515Z,1.80
2023-04-02T17:36:52.620Z,1.63
2023-04-02T17:39:54.931Z,1.50
2023-04-02T17:43:00.655Z,1.90
2023-04-02T17:46:31.231Z,1.90
2023-04-02T17:49:23.990Z,1.80
2023-04-02T17:52:24.057Z,1.80
2023-04-02T17:55:31.342Z,1.70
2023-04-02T17:58:44.780Z,2.00
2023-04-02T18:01:54.809Z,2.30
2023-04-02T18:04:54.003Z,1.90
2023-04-02T18:07:57.037Z,2.10
2023-04-02T18:11:10.501Z,1.87
2023-04-02T18:14:22.655Z,1.87
2023-04-02T18:17:24.727Z,1.83
2023-04-02T18:20:33.012Z,2.00
2023-04-02T18:23:51.173Z,2.00
2023-04-02T18:26:56.599Z,1.80
2023-04-02T18:30:11.364Z,1.90
2023-04-02T18:33:13.448Z,2.30
2023-04-02T18:36:06.572Z,2.17
2023-04-02T18:39:20.638Z,2.30
2023-04-02T18:42:32.502Z,2.27
2023-04-02T18:45:38.293Z,2.10
2023-04-02T18:48:40.809Z,2.10
2023-04-02T18:51:32.205Z,2.27
2023-04-02T18:54:39.108Z,2.60
2023-04-02T18:57:30.165Z,2.37
2023-04-02T19:00:29.408Z,2.40
2023-04-02T19:03:39.664Z,2.60
2023-04-02T19:06:32.236Z,2.33
2023-04-02T19:09:26.512Z,2.53
2023-04-02T19:12:18.936Z,2.33
2023-04-02T19:15:18.758Z,2.80
2023-04-02T19:18:14.246Z,2.63
2023-04-02T19:21:15.589Z,2.60
2023-04-02T19:24:17.353Z,2.90
2023-04-02T19:27:13.617Z,2.67
2023-04-02T19:30:27.948Z,2.40
2023-04-02T19:33:51.993Z,2.53
2023-04-02T19:36:54.680Z,2.63
2023-04-02T19:40:20.419Z,2.37
2023-04-02T19:43:10.120Z,2.00
2023-04-02T19:45:57.538Z,2.80
2023-04-02T19:48:48.556Z,5.47
2023-04-02T19:51:35.698Z,6.43
2023-04-02T19:54:22.989Z,4.00
2023-04-02T19:57:14.291Z,4.30
2023-04-02T20:00:01.556Z,4.00
2023-04-02T20:02:48.700Z,3.20
2023-04-02T20:05:35.949Z,2.50
2023-04-02T20:08:23.127Z,2.57
2023-04-02T20:11:10.425Z,2.70
2023-04-02T20:13:57.510Z,2.23
2023-04-02T20:16:45.873Z,2.40
2023-04-02T20:19:33.084Z,2.70
2023-04-02T20:22:20.084Z,2.10
2023-04-02T20:25:07.821Z,2.23
2023-04-02T20:27:54.822Z,2.53
2023-04-02T20:30:41.987Z,2.60
2023-04-02T20:33:29.080Z,2.47
2023-04-02T20:36:17.332Z,2.53
2023-04-02T20:39:07.794Z,2.50
2023-04-02T20:41:55.762Z,2.47
2023-04-02T20:44:42.803Z,2.40
2023-04-02T20:47:29.759Z,2.47
2023-04-02T20:50:17.582Z,2.13
2023-04-02T20:53:04.572Z,2.40
2023-04-02T20:55:51.600Z,2.63
2023-04-02T20:58:39.431Z,2.30
2023-04-02T21:01:28.720Z,2.23
2023-04-02T21:04:15.973Z,2.40
2023-04-02T21:07:02.925Z,2.40
2023-04-02T21:09:51.707Z,2.50
2023-04-02T21:12:38.848Z,2.73
2023-04-02T21:15:25.887Z,2.30
2023-04-02T21:18:12.827Z,2.70
2023-04-02T21:21:02.450Z,3.53
2023-04-02T21:23:59.273Z,3.13
2023-04-02T21:26:46.642Z,2.33
2023-04-02T21:29:33.658Z,1.83
2023-04-02T21:32:21.918Z,1.80
2023-04-02T21:35:09.541Z,1.80
2023-04-02T21:37:56.524Z,1.60
2023-04-02T21:40:43.493Z,1.30
2023-04-02T21:43:30.631Z,1.47
2023-04-02T21:46:20.218Z,1.40
2023-04-02T21:49:10.062Z,1.53
2023-04-02T21:51:57.101Z,1.40
2023-04-02T21:54:44.034Z,1.30
2023-04-02T21:57:31.154Z,1.07
2023-04-02T22:00:18.352Z,1.23
2023-04-02T22:03:05.629Z,1.20
2023-04-02T22:06:10.825Z,1.20
2023-04-02T22:09:01.232Z,1.17
2023-04-02T22:11:51.921Z,1.30
2023-04-02T22:14:38.925Z,1.10
2023-04-02T22:17:25.964Z,1.13
2023-04-02T22:20:13.001Z,0.90
2023-04-02T22:22:59.998Z,1.43
2023-04-02T22:25:46.939Z,1.30
2023-04-02T22:28:34.121Z,1.13
2023-04-02T22:31:24.250Z,1.43
2023-04-02T22:34:11.407Z,1.10
2023-04-02T22:36:58.970Z,1.10
2023-04-02T22:39:45.910Z,1.30
2023-04-02T22:42:34.360Z,1.30
2023-04-02T22:45:21.922Z,1.20
2023-04-02T22:48:08.872Z,1.33
2023-04-02T22:50:55.889Z,1.30
2023-04-02T22:53:43.247Z,1.20
2023-04-02T22:56:32.777Z,1.10
2023-04-02T22:59:19.769Z,1.40
2023-04-02T23:02:06.760Z,1.40
2023-04-02T23:04:53.744Z,1.30
2023-04-02T23:07:40.884Z,1.20
2023-04-02T23:10:33.104Z,1.33
2023-04-02T23:13:20.471Z,1.37
2023-04-02T23:16:11.787Z,1.37
2023-04-02T23:18:58.992Z,1.40
2023-04-02T23:21:45.953Z,1.20
2023-04-02T23:24:32.896Z,1.27
2023-04-02T23:27:21.905Z,1.50
2023-04-02T23:30:09.033Z,1.13
2023-04-02T23:32:56.089Z,1.70
2023-04-02T23:35:43.109Z,1.60
2023-04-02T23:38:30.228Z,1.53
2023-04-02T23:41:17.473Z,1.20
2023-04-02T23:44:05.716Z,1.33
2023-04-02T23:46:52.863Z,1.40
2023-04-02T23:49:39.933Z,1.40
2023-04-02T23:52:26.883Z,1.33
2023-04-02T23:55:13.983Z,1.43
2023-04-02T23:58:00.981Z,1.60
